sensor_id;sensor_type;location;lat;lon;timestamp;P1;durP1;ratioP1;P2;durP2;ratioP2
33794;SDS011;51430;52.242;21.118;2023-05-29T00:00:41;8.80;;;4.50;;
33794;SDS011;51430;52.242;21.118;2023-05-29T00:03:24;8.30;;;4.40;;
33794;SDS011;51430;52.242;21.118;2023-05-29T00:05:52;8.30;;;4.50;;
33794;SDS011;51430;52.242;21.118;2023-05-29T00:08:20;7.70;;;4.40;;
33794;SDS011;51430;52.242;21.118;2023-05-29T00:10:48;7.30;;;4.70;;
33794;SDS011;51430;52.242;21.118;2023-05-29T00:13:16;8.00;;;4.40;;
33794;SDS011;51430;52.242;21.118;2023-05-29T00:15:44;7.60;;;4.60;;
33794;SDS011;51430;52.242;21.118;2023-05-29T00:18:11;12.60;;;5.30;;
33794;SDS011;51430;52.242;21.118;2023-05-29T00:20:39;8.10;;;4.50;;
33794;SDS011;51430;52.242;21.118;2023-05-29T00:23:07;8.80;;;4.80;;
33794;SDS011;51430;52.242;21.118;2023-05-29T00:25:37;8.70;;;4.90;;
33794;SDS011;51430;52.242;21.118;2023-05-29T00:28:06;9.90;;;5.00;;
33794;SDS011;51430;52.242;21.118;2023-05-29T00:30:34;11.00;;;5.00;;
33794;SDS011;51430;52.242;21.118;2023-05-29T00:33:02;9.00;;;5.10;;
33794;SDS011;51430;52.242;21.118;2023-05-29T00:35:30;12.00;;;5.00;;
33794;SDS011;51430;52.242;21.118;2023-05-29T00:37:58;7.40;;;5.20;;
33794;SDS011;51430;52.242;21.118;2023-05-29T00:40:26;7.20;;;5.20;;
33794;SDS011;51430;52.242;21.118;2023-05-29T00:42:54;8.30;;;5.00;;
33794;SDS011;51430;52.242;21.118;2023-05-29T00:45:22;7.70;;;4.80;;
33794;SDS011;51430;52.242;21.118;2023-05-29T00:47:49;7.30;;;4.80;;
33794;SDS011;51430;52.242;21.118;2023-05-29T00:50:19;8.80;;;4.90;;
33794;SDS011;51430;52.242;21.118;2023-05-29T00:52:49;7.50;;;5.00;;
33794;SDS011;51430;52.242;21.118;2023-05-29T00:55:17;8.60;;;5.20;;
33794;SDS011;51430;52.242;21.118;2023-05-29T00:57:45;8.60;;;5.40;;
33794;SDS011;51430;52.242;21.118;2023-05-29T01:00:15;7.90;;;5.20;;
33794;SDS011;51430;52.242;21.118;2023-05-29T01:02:44;8.70;;;5.00;;
33794;SDS011;51430;52.242;21.118;2023-05-29T01:05:13;8.20;;;5.30;;
33794;SDS011;51430;52.242;21.118;2023-05-29T01:07:42;6.80;;;4.90;;
33794;SDS011;51430;52.242;21.118;2023-05-29T01:10:10;8.50;;;4.90;;
33794;SDS011;51430;52.242;21.118;2023-05-29T01:18:04;9.10;;;5.20;;
33794;SDS011;51430;52.242;21.118;2023-05-29T01:20:41;7.00;;;4.80;;
33794;SDS011;51430;52.242;21.118;2023-05-29T01:26:11;7.60;;;4.90;;
33794;SDS011;51430;52.242;21.118;2023-05-29T01:28:41;7.80;;;5.20;;
33794;SDS011;51430;52.242;21.118;2023-05-29T01:31:16;9.20;;;4.90;;
33794;SDS011;51430;52.242;21.118;2023-05-29T01:33:52;7.40;;;5.20;;
33794;SDS011;51430;52.242;21.118;2023-05-29T01:36:21;6.40;;;5.00;;
33794;SDS011;51430;52.242;21.118;2023-05-29T01:38:50;9.40;;;5.40;;
33794;SDS011;51430;52.242;21.118;2023-05-29T01:41:19;10.00;;;5.50;;
33794;SDS011;51430;52.242;21.118;2023-05-29T01:43:49;10.90;;;5.50;;
33794;SDS011;51430;52.242;21.118;2023-05-29T01:46:18;9.60;;;5.20;;
33794;SDS011;51430;52.242;21.118;2023-05-29T01:48:47;7.50;;;4.80;;
33794;SDS011;51430;52.242;21.118;2023-05-29T01:51:16;8.60;;;5.00;;
33794;SDS011;51430;52.242;21.118;2023-05-29T01:53:44;9.20;;;5.10;;
33794;SDS011;51430;52.242;21.118;2023-05-29T01:56:12;8.20;;;5.30;;
33794;SDS011;51430;52.242;21.118;2023-05-29T01:58:40;8.80;;;5.00;;
33794;SDS011;51430;52.242;21.118;2023-05-29T02:01:09;8.90;;;5.20;;
33794;SDS011;51430;52.242;21.118;2023-05-29T02:03:38;8.70;;;4.60;;
33794;SDS011;51430;52.242;21.118;2023-05-29T02:06:06;9.70;;;5.20;;
33794;SDS011;51430;52.242;21.118;2023-05-29T02:08:34;10.20;;;5.00;;
33794;SDS011;51430;52.242;21.118;2023-05-29T02:11:02;6.10;;;4.90;;
33794;SDS011;51430;52.242;21.118;2023-05-29T02:13:31;7.30;;;5.00;;
33794;SDS011;51430;52.242;21.118;2023-05-29T02:15:59;8.10;;;4.90;;
33794;SDS011;51430;52.242;21.118;2023-05-29T02:18:27;8.60;;;5.20;;
33794;SDS011;51430;52.242;21.118;2023-05-29T02:20:55;7.70;;;4.60;;
33794;SDS011;51430;52.242;21.118;2023-05-29T02:23:23;7.90;;;4.60;;
33794;SDS011;51430;52.242;21.118;2023-05-29T02:25:51;10.00;;;5.00;;
33794;SDS011;51430;52.242;21.118;2023-05-29T02:28:19;8.30;;;5.30;;
33794;SDS011;51430;52.242;21.118;2023-05-29T02:30:47;6.60;;;4.90;;
33794;SDS011;51430;52.242;21.118;2023-05-29T02:33:15;7.00;;;5.10;;
33794;SDS011;51430;52.242;21.118;2023-05-29T02:35:43;7.90;;;4.80;;
33794;SDS011;51430;52.242;21.118;2023-05-29T02:38:11;7.60;;;4.90;;
33794;SDS011;51430;52.242;21.118;2023-05-29T02:40:39;6.70;;;4.90;;
33794;SDS011;51430;52.242;21.118;2023-05-29T02:43:07;8.50;;;5.10;;
33794;SDS011;51430;52.242;21.118;2023-05-29T02:45:37;7.50;;;4.90;;
33794;SDS011;51430;52.242;21.118;2023-05-29T02:48:05;7.80;;;5.10;;
33794;SDS011;51430;52.242;21.118;2023-05-29T02:50:33;8.40;;;5.10;;
33794;SDS011;51430;52.242;21.118;2023-05-29T02:53:02;7.40;;;5.00;;
33794;SDS011;51430;52.242;21.118;2023-05-29T02:55:30;9.00;;;5.10;;
33794;SDS011;51430;52.242;21.118;2023-05-29T02:58:01;7.00;;;5.00;;
33794;SDS011;51430;52.242;21.118;2023-05-29T03:00:29;10.20;;;4.80;;
33794;SDS011;51430;52.242;21.118;2023-05-29T03:02:57;9.60;;;5.00;;
33794;SDS011;51430;52.242;21.118;2023-05-29T03:05:25;8.80;;;4.70;;
33794;SDS011;51430;52.242;21.118;2023-05-29T03:07:53;9.90;;;5.30;;
33794;SDS011;51430;52.242;21.118;2023-05-29T03:10:21;9.40;;;5.20;;
33794;SDS011;51430;52.242;21.118;2023-05-29T03:12:49;8.10;;;5.00;;
33794;SDS011;51430;52.242;21.118;2023-05-29T03:15:18;8.10;;;5.10;;
33794;SDS011;51430;52.242;21.118;2023-05-29T03:17:48;8.90;;;4.90;;
33794;SDS011;51430;52.242;21.118;2023-05-29T03:20:16;9.40;;;5.00;;
33794;SDS011;51430;52.242;21.118;2023-05-29T03:22:44;10.50;;;5.10;;
33794;SDS011;51430;52.242;21.118;2023-05-29T03:25:11;8.40;;;4.70;;
33794;SDS011;51430;52.242;21.118;2023-05-29T03:27:39;7.90;;;5.20;;
33794;SDS011;51430;52.242;21.118;2023-05-29T03:30:08;8.40;;;4.90;;
33794;SDS011;51430;52.242;21.118;2023-05-29T03:32:37;7.10;;;4.90;;
33794;SDS011;51430;52.242;21.118;2023-05-29T03:35:05;7.10;;;4.80;;
33794;SDS011;51430;52.242;21.118;2023-05-29T03:37:33;10.00;;;4.90;;
33794;SDS011;51430;52.242;21.118;2023-05-29T03:40:01;7.90;;;4.90;;
33794;SDS011;51430;52.242;21.118;2023-05-29T03:42:29;7.70;;;5.10;;
33794;SDS011;51430;52.242;21.118;2023-05-29T03:44:58;8.80;;;5.00;;
33794;SDS011;51430;52.242;21.118;2023-05-29T03:47:27;7.50;;;4.80;;
33794;SDS011;51430;52.242;21.118;2023-05-29T03:49:55;8.70;;;4.90;;
33794;SDS011;51430;52.242;21.118;2023-05-29T03:52:23;10.10;;;5.00;;
33794;SDS011;51430;52.242;21.118;2023-05-29T03:54:51;6.50;;;4.80;;
33794;SDS011;51430;52.242;21.118;2023-05-29T03:57:18;7.90;;;5.10;;
33794;SDS011;51430;52.242;21.118;2023-05-29T03:59:46;8.10;;;4.90;;
33794;SDS011;51430;52.242;21.118;2023-05-29T04:02:14;9.20;;;5.20;;
33794;SDS011;51430;52.242;21.118;2023-05-29T04:04:45;8.30;;;5.00;;
33794;SDS011;51430;52.242;21.118;2023-05-29T04:07:14;7.00;;;4.30;;
33794;SDS011;51430;52.242;21.118;2023-05-29T04:09:42;7.70;;;4.90;;
33794;SDS011;51430;52.242;21.118;2023-05-29T04:12:10;7.80;;;4.70;;
33794;SDS011;51430;52.242;21.118;2023-05-29T04:14:38;11.40;;;5.00;;
33794;SDS011;51430;52.242;21.118;2023-05-29T04:17:05;8.50;;;4.40;;
33794;SDS011;51430;52.242;21.118;2023-05-29T04:19:33;8.10;;;4.60;;
33794;SDS011;51430;52.242;21.118;2023-05-29T04:22:01;7.30;;;4.70;;
33794;SDS011;51430;52.242;21.118;2023-05-29T04:24:31;11.20;;;5.20;;
33794;SDS011;51430;52.242;21.118;2023-05-29T04:27:00;9.70;;;4.90;;
33794;SDS011;51430;52.242;21.118;2023-05-29T04:29:29;10.30;;;5.10;;
33794;SDS011;51430;52.242;21.118;2023-05-29T04:31:58;11.60;;;5.20;;
33794;SDS011;51430;52.242;21.118;2023-05-29T04:34:25;11.40;;;5.50;;
33794;SDS011;51430;52.242;21.118;2023-05-29T04:36:54;9.90;;;5.30;;
33794;SDS011;51430;52.242;21.118;2023-05-29T04:39:22;12.10;;;5.20;;
33794;SDS011;51430;52.242;21.118;2023-05-29T04:41:50;11.10;;;5.60;;
33794;SDS011;51430;52.242;21.118;2023-05-29T04:44:18;8.90;;;5.30;;
33794;SDS011;51430;52.242;21.118;2023-05-29T04:46:46;9.30;;;5.10;;
33794;SDS011;51430;52.242;21.118;2023-05-29T04:49:15;8.10;;;4.70;;
33794;SDS011;51430;52.242;21.118;2023-05-29T04:51:43;10.00;;;4.80;;
33794;SDS011;51430;52.242;21.118;2023-05-29T04:54:11;8.80;;;5.00;;
33794;SDS011;51430;52.242;21.118;2023-05-29T04:56:39;8.80;;;5.00;;
33794;SDS011;51430;52.242;21.118;2023-05-29T04:59:10;9.50;;;4.90;;
33794;SDS011;51430;52.242;21.118;2023-05-29T05:01:38;10.30;;;5.20;;
33794;SDS011;51430;52.242;21.118;2023-05-29T05:04:06;11.40;;;4.90;;
33794;SDS011;51430;52.242;21.118;2023-05-29T05:06:34;10.80;;;5.30;;
33794;SDS011;51430;52.242;21.118;2023-05-29T05:09:02;8.20;;;4.70;;
33794;SDS011;51430;52.242;21.118;2023-05-29T05:11:30;10.30;;;4.50;;
33794;SDS011;51430;52.242;21.118;2023-05-29T05:13:58;10.40;;;5.10;;
33794;SDS011;51430;52.242;21.118;2023-05-29T05:16:26;9.40;;;4.60;;
33794;SDS011;51430;52.242;21.118;2023-05-29T05:18:54;12.00;;;4.50;;
33794;SDS011;51430;52.242;21.118;2023-05-29T05:21:22;9.00;;;3.70;;
33794;SDS011;51430;52.242;21.118;2023-05-29T05:23:49;9.00;;;4.10;;
33794;SDS011;51430;52.242;21.118;2023-05-29T05:26:25;9.30;;;3.80;;
33794;SDS011;51430;52.242;21.118;2023-05-29T05:28:56;7.40;;;3.70;;
33794;SDS011;51430;52.242;21.118;2023-05-29T05:31:24;9.50;;;4.10;;
33794;SDS011;51430;52.242;21.118;2023-05-29T05:33:52;10.60;;;4.30;;
33794;SDS011;51430;52.242;21.118;2023-05-29T05:36:20;6.40;;;3.80;;
33794;SDS011;51430;52.242;21.118;2023-05-29T05:38:48;6.70;;;3.60;;
33794;SDS011;51430;52.242;21.118;2023-05-29T05:41:17;10.90;;;3.90;;
33794;SDS011;51430;52.242;21.118;2023-05-29T05:43:56;9.00;;;3.60;;
33794;SDS011;51430;52.242;21.118;2023-05-29T05:46:24;8.20;;;3.60;;
33794;SDS011;51430;52.242;21.118;2023-05-29T05:48:54;10.10;;;3.70;;
33794;SDS011;51430;52.242;21.118;2023-05-29T05:51:25;5.70;;;3.30;;
33794;SDS011;51430;52.242;21.118;2023-05-29T05:53:53;8.90;;;3.20;;
33794;SDS011;51430;52.242;21.118;2023-05-29T05:56:21;7.90;;;3.40;;
33794;SDS011;51430;52.242;21.118;2023-05-29T05:58:49;10.50;;;3.60;;
33794;SDS011;51430;52.242;21.118;2023-05-29T06:01:17;6.10;;;3.30;;
33794;SDS011;51430;52.242;21.118;2023-05-29T06:03:46;7.10;;;3.30;;
33794;SDS011;51430;52.242;21.118;2023-05-29T06:06:14;7.10;;;3.50;;
33794;SDS011;51430;52.242;21.118;2023-05-29T06:08:44;11.60;;;3.60;;
33794;SDS011;51430;52.242;21.118;2023-05-29T06:11:14;7.60;;;3.20;;
33794;SDS011;51430;52.242;21.118;2023-05-29T06:13:42;7.90;;;3.50;;
33794;SDS011;51430;52.242;21.118;2023-05-29T06:16:10;9.00;;;3.10;;
33794;SDS011;51430;52.242;21.118;2023-05-29T06:18:38;6.50;;;3.00;;
33794;SDS011;51430;52.242;21.118;2023-05-29T06:21:06;5.50;;;3.10;;
33794;SDS011;51430;52.242;21.118;2023-05-29T06:23:35;24.80;;;9.40;;
33794;SDS011;51430;52.242;21.118;2023-05-29T06:26:04;11.20;;;4.20;;
33794;SDS011;51430;52.242;21.118;2023-05-29T06:28:33;15.80;;;5.60;;
33794;SDS011;51430;52.242;21.118;2023-05-29T06:31:01;9.40;;;3.60;;
33794;SDS011;51430;52.242;21.118;2023-05-29T06:33:29;8.10;;;3.10;;
33794;SDS011;51430;52.242;21.118;2023-05-29T06:35:57;6.90;;;2.90;;
33794;SDS011;51430;52.242;21.118;2023-05-29T06:38:27;7.80;;;2.90;;
33794;SDS011;51430;52.242;21.118;2023-05-29T06:40:55;9.80;;;3.10;;
33794;SDS011;51430;52.242;21.118;2023-05-29T06:43:23;8.80;;;2.80;;
33794;SDS011;51430;52.242;21.118;2023-05-29T06:45:51;6.80;;;2.70;;
33794;SDS011;51430;52.242;21.118;2023-05-29T06:48:19;12.20;;;2.40;;
33794;SDS011;51430;52.242;21.118;2023-05-29T06:50:47;7.80;;;2.40;;
33794;SDS011;51430;52.242;21.118;2023-05-29T06:53:15;7.40;;;2.00;;
33794;SDS011;51430;52.242;21.118;2023-05-29T06:55:43;5.10;;;2.00;;
33794;SDS011;51430;52.242;21.118;2023-05-29T06:58:19;4.20;;;2.00;;
33794;SDS011;51430;52.242;21.118;2023-05-29T07:00:49;4.80;;;1.80;;
33794;SDS011;51430;52.242;21.118;2023-05-29T07:03:19;7.90;;;1.90;;
33794;SDS011;51430;52.242;21.118;2023-05-29T07:05:49;4.50;;;1.80;;
33794;SDS011;51430;52.242;21.118;2023-05-29T07:08:19;3.80;;;1.60;;
33794;SDS011;51430;52.242;21.118;2023-05-29T07:10:48;6.50;;;1.70;;
33794;SDS011;51430;52.242;21.118;2023-05-29T07:13:20;6.10;;;1.70;;
33794;SDS011;51430;52.242;21.118;2023-05-29T07:15:49;4.60;;;1.50;;
33794;SDS011;51430;52.242;21.118;2023-05-29T07:18:20;5.30;;;1.80;;
33794;SDS011;51430;52.242;21.118;2023-05-29T07:20:48;3.20;;;1.90;;
33794;SDS011;51430;52.242;21.118;2023-05-29T07:24:32;3.50;;;2.00;;
33794;SDS011;51430;52.242;21.118;2023-05-29T07:27:02;4.60;;;1.70;;
33794;SDS011;51430;52.242;21.118;2023-05-29T07:29:32;5.70;;;1.70;;
33794;SDS011;51430;52.242;21.118;2023-05-29T07:32:04;5.30;;;1.90;;
33794;SDS011;51430;52.242;21.118;2023-05-29T07:34:32;4.00;;;1.80;;
33794;SDS011;51430;52.242;21.118;2023-05-29T07:37:01;4.90;;;1.70;;
33794;SDS011;51430;52.242;21.118;2023-05-29T07:39:31;5.40;;;1.60;;
33794;SDS011;51430;52.242;21.118;2023-05-29T07:42:01;4.70;;;1.70;;
33794;SDS011;51430;52.242;21.118;2023-05-29T07:44:30;5.50;;;1.60;;
33794;SDS011;51430;52.242;21.118;2023-05-29T07:46:59;4.30;;;1.60;;
33794;SDS011;51430;52.242;21.118;2023-05-29T07:49:27;5.10;;;1.60;;
33794;SDS011;51430;52.242;21.118;2023-05-29T07:51:55;2.50;;;1.50;;
33794;SDS011;51430;52.242;21.118;2023-05-29T07:54:23;5.00;;;1.70;;
33794;SDS011;51430;52.242;21.118;2023-05-29T07:56:51;4.50;;;1.60;;
33794;SDS011;51430;52.242;21.118;2023-05-29T07:59:19;5.50;;;1.90;;
33794;SDS011;51430;52.242;21.118;2023-05-29T08:01:48;4.40;;;1.60;;
33794;SDS011;51430;52.242;21.118;2023-05-29T08:04:17;4.70;;;1.90;;
33794;SDS011;51430;52.242;21.118;2023-05-29T08:06:45;5.20;;;1.80;;
33794;SDS011;51430;52.242;21.118;2023-05-29T08:09:13;5.20;;;1.60;;
33794;SDS011;51430;52.242;21.118;2023-05-29T08:11:41;4.00;;;1.40;;
33794;SDS011;51430;52.242;21.118;2023-05-29T08:14:09;4.20;;;1.70;;
33794;SDS011;51430;52.242;21.118;2023-05-29T08:16:39;4.60;;;1.70;;
33794;SDS011;51430;52.242;21.118;2023-05-29T08:19:07;4.40;;;1.60;;
33794;SDS011;51430;52.242;21.118;2023-05-29T08:24:37;7.00;;;2.00;;
33794;SDS011;51430;52.242;21.118;2023-05-29T08:27:05;3.70;;;1.60;;
33794;SDS011;51430;52.242;21.118;2023-05-29T08:29:33;5.30;;;1.90;;
33794;SDS011;51430;52.242;21.118;2023-05-29T08:32:04;4.80;;;1.80;;
33794;SDS011;51430;52.242;21.118;2023-05-29T08:34:32;4.90;;;1.70;;
33794;SDS011;51430;52.242;21.118;2023-05-29T08:37:04;5.90;;;1.70;;
33794;SDS011;51430;52.242;21.118;2023-05-29T08:39:33;4.40;;;2.70;;
33794;SDS011;51430;52.242;21.118;2023-05-29T08:42:07;5.50;;;2.50;;
33794;SDS011;51430;52.242;21.118;2023-05-29T08:44:47;4.00;;;1.70;;
33794;SDS011;51430;52.242;21.118;2023-05-29T08:47:22;3.90;;;1.70;;
33794;SDS011;51430;52.242;21.118;2023-05-29T08:49:56;3.50;;;2.00;;
33794;SDS011;51430;52.242;21.118;2023-05-29T08:52:26;6.10;;;2.90;;
33794;SDS011;51430;52.242;21.118;2023-05-29T08:55:03;5.30;;;1.90;;
33794;SDS011;51430;52.242;21.118;2023-05-29T08:57:32;3.00;;;1.60;;
33794;SDS011;51430;52.242;21.118;2023-05-29T09:00:00;4.70;;;1.50;;
33794;SDS011;51430;52.242;21.118;2023-05-29T09:02:33;4.80;;;1.60;;
33794;SDS011;51430;52.242;21.118;2023-05-29T09:05:01;4.90;;;1.70;;
33794;SDS011;51430;52.242;21.118;2023-05-29T09:07:34;3.10;;;1.60;;
33794;SDS011;51430;52.242;21.118;2023-05-29T09:10:08;5.00;;;1.60;;
33794;SDS011;51430;52.242;21.118;2023-05-29T09:12:43;3.40;;;1.50;;
33794;SDS011;51430;52.242;21.118;2023-05-29T09:15:18;4.00;;;1.40;;
33794;SDS011;51430;52.242;21.118;2023-05-29T09:17:52;3.60;;;1.90;;
33794;SDS011;51430;52.242;21.118;2023-05-29T09:20:21;5.80;;;2.50;;
33794;SDS011;51430;52.242;21.118;2023-05-29T09:25:22;7.50;;;2.00;;
33794;SDS011;51430;52.242;21.118;2023-05-29T09:27:54;5.00;;;1.60;;
33794;SDS011;51430;52.242;21.118;2023-05-29T09:30:31;5.70;;;1.60;;
33794;SDS011;51430;52.242;21.118;2023-05-29T09:32:59;6.50;;;1.60;;
33794;SDS011;51430;52.242;21.118;2023-05-29T09:35:35;5.10;;;1.90;;
33794;SDS011;51430;52.242;21.118;2023-05-29T09:38:10;6.60;;;1.70;;
33794;SDS011;51430;52.242;21.118;2023-05-29T09:40:55;9.50;;;1.90;;
33794;SDS011;51430;52.242;21.118;2023-05-29T09:43:32;3.70;;;1.60;;
33794;SDS011;51430;52.242;21.118;2023-05-29T09:46:01;4.00;;;1.60;;
33794;SDS011;51430;52.242;21.118;2023-05-29T09:48:30;3.20;;;1.80;;
33794;SDS011;51430;52.242;21.118;2023-05-29T09:51:00;4.60;;;1.60;;
33794;SDS011;51430;52.242;21.118;2023-05-29T09:53:30;2.40;;;1.50;;
33794;SDS011;51430;52.242;21.118;2023-05-29T09:55:58;3.50;;;1.60;;
33794;SDS011;51430;52.242;21.118;2023-05-29T09:58:30;5.60;;;1.80;;
33794;SDS011;51430;52.242;21.118;2023-05-29T10:01:00;4.00;;;1.80;;
33794;SDS011;51430;52.242;21.118;2023-05-29T10:03:29;2.90;;;1.60;;
33794;SDS011;51430;52.242;21.118;2023-05-29T10:06:02;5.30;;;1.70;;
33794;SDS011;51430;52.242;21.118;2023-05-29T10:08:34;4.90;;;1.70;;
33794;SDS011;51430;52.242;21.118;2023-05-29T10:11:07;4.00;;;1.80;;
33794;SDS011;51430;52.242;21.118;2023-05-29T10:13:42;4.50;;;1.80;;
33794;SDS011;51430;52.242;21.118;2023-05-29T10:16:16;6.20;;;1.80;;
33794;SDS011;51430;52.242;21.118;2023-05-29T10:18:55;4.20;;;1.70;;
33794;SDS011;51430;52.242;21.118;2023-05-29T10:21:25;7.10;;;2.10;;
33794;SDS011;51430;52.242;21.118;2023-05-29T10:23:55;7.80;;;1.90;;
33794;SDS011;51430;52.242;21.118;2023-05-29T10:26:25;5.70;;;1.80;;
33794;SDS011;51430;52.242;21.118;2023-05-29T10:29:10;4.70;;;2.00;;
33794;SDS011;51430;52.242;21.118;2023-05-29T10:31:58;6.60;;;1.90;;
33794;SDS011;51430;52.242;21.118;2023-05-29T10:34:50;4.00;;;1.70;;
33794;SDS011;51430;52.242;21.118;2023-05-29T10:37:50;4.50;;;1.70;;
33794;SDS011;51430;52.242;21.118;2023-05-29T10:40:23;5.40;;;1.80;;
33794;SDS011;51430;52.242;21.118;2023-05-29T10:42:54;6.40;;;1.70;;
33794;SDS011;51430;52.242;21.118;2023-05-29T10:50:35;4.40;;;1.50;;
33794;SDS011;51430;52.242;21.118;2023-05-29T10:53:09;4.70;;;1.80;;
33794;SDS011;51430;52.242;21.118;2023-05-29T10:55:38;5.20;;;1.90;;
33794;SDS011;51430;52.242;21.118;2023-05-29T10:58:14;4.80;;;1.70;;
33794;SDS011;51430;52.242;21.118;2023-05-29T11:00:47;4.50;;;1.90;;
33794;SDS011;51430;52.242;21.118;2023-05-29T11:03:25;3.60;;;1.60;;
33794;SDS011;51430;52.242;21.118;2023-05-29T11:06:03;4.50;;;1.80;;
33794;SDS011;51430;52.242;21.118;2023-05-29T11:11:05;5.90;;;1.70;;
33794;SDS011;51430;52.242;21.118;2023-05-29T11:13:35;5.10;;;1.90;;
33794;SDS011;51430;52.242;21.118;2023-05-29T11:16:14;4.70;;;2.10;;
33794;SDS011;51430;52.242;21.118;2023-05-29T11:19:04;6.60;;;1.80;;
33794;SDS011;51430;52.242;21.118;2023-05-29T11:24:23;4.30;;;1.90;;
33794;SDS011;51430;52.242;21.118;2023-05-29T11:26:54;5.70;;;1.70;;
33794;SDS011;51430;52.242;21.118;2023-05-29T11:29:25;3.60;;;1.80;;
33794;SDS011;51430;52.242;21.118;2023-05-29T11:32:02;5.40;;;2.10;;
33794;SDS011;51430;52.242;21.118;2023-05-29T11:34:33;5.90;;;2.20;;
33794;SDS011;51430;52.242;21.118;2023-05-29T11:37:02;5.70;;;1.80;;
33794;SDS011;51430;52.242;21.118;2023-05-29T11:39:36;7.10;;;2.10;;
33794;SDS011;51430;52.242;21.118;2023-05-29T11:42:05;4.50;;;2.10;;
33794;SDS011;51430;52.242;21.118;2023-05-29T11:44:36;6.40;;;2.10;;
33794;SDS011;51430;52.242;21.118;2023-05-29T11:47:05;4.00;;;2.20;;
33794;SDS011;51430;52.242;21.118;2023-05-29T11:49:36;8.10;;;2.40;;
33794;SDS011;51430;52.242;21.118;2023-05-29T11:52:06;6.40;;;2.10;;
33794;SDS011;51430;52.242;21.118;2023-05-29T11:54:43;6.60;;;2.10;;
33794;SDS011;51430;52.242;21.118;2023-05-29T11:57:19;9.90;;;2.30;;
33794;SDS011;51430;52.242;21.118;2023-05-29T11:59:50;4.70;;;2.30;;
33794;SDS011;51430;52.242;21.118;2023-05-29T12:02:29;5.70;;;2.10;;
33794;SDS011;51430;52.242;21.118;2023-05-29T12:04:59;7.40;;;2.40;;
33794;SDS011;51430;52.242;21.118;2023-05-29T12:07:36;6.40;;;2.20;;
33794;SDS011;51430;52.242;21.118;2023-05-29T12:10:08;6.80;;;2.40;;
33794;SDS011;51430;52.242;21.118;2023-05-29T12:12:40;7.60;;;2.30;;
33794;SDS011;51430;52.242;21.118;2023-05-29T12:15:10;9.50;;;3.40;;
33794;SDS011;51430;52.242;21.118;2023-05-29T12:17:39;5.80;;;2.50;;
33794;SDS011;51430;52.242;21.118;2023-05-29T12:20:09;6.90;;;2.40;;
33794;SDS011;51430;52.242;21.118;2023-05-29T12:22:40;6.40;;;2.30;;
33794;SDS011;51430;52.242;21.118;2023-05-29T12:25:16;7.70;;;2.50;;
33794;SDS011;51430;52.242;21.118;2023-05-29T12:27:46;8.40;;;2.80;;
33794;SDS011;51430;52.242;21.118;2023-05-29T12:32:59;8.00;;;2.50;;
33794;SDS011;51430;52.242;21.118;2023-05-29T12:35:29;12.40;;;2.70;;
33794;SDS011;51430;52.242;21.118;2023-05-29T12:40:28;8.90;;;2.50;;
33794;SDS011;51430;52.242;21.118;2023-05-29T12:42:59;6.60;;;2.70;;
33794;SDS011;51430;52.242;21.118;2023-05-29T12:45:29;8.80;;;2.50;;
33794;SDS011;51430;52.242;21.118;2023-05-29T12:48:03;7.30;;;2.70;;
33794;SDS011;51430;52.242;21.118;2023-05-29T12:50:40;9.30;;;2.40;;
33794;SDS011;51430;52.242;21.118;2023-05-29T12:53:14;5.50;;;2.50;;
33794;SDS011;51430;52.242;21.118;2023-05-29T12:55:46;4.50;;;2.30;;
33794;SDS011;51430;52.242;21.118;2023-05-29T12:58:15;7.50;;;2.70;;
33794;SDS011;51430;52.242;21.118;2023-05-29T13:00:44;7.50;;;2.30;;
33794;SDS011;51430;52.242;21.118;2023-05-29T13:03:13;6.30;;;2.50;;
33794;SDS011;51430;52.242;21.118;2023-05-29T13:05:45;7.20;;;2.30;;
33794;SDS011;51430;52.242;21.118;2023-05-29T13:08:13;7.20;;;2.50;;
33794;SDS011;51430;52.242;21.118;2023-05-29T13:11:04;9.60;;;2.70;;
33794;SDS011;51430;52.242;21.118;2023-05-29T13:13:33;6.10;;;2.60;;
33794;SDS011;51430;52.242;21.118;2023-05-29T13:16:03;8.80;;;2.40;;
33794;SDS011;51430;52.242;21.118;2023-05-29T13:18:33;9.70;;;4.40;;
33794;SDS011;51430;52.242;21.118;2023-05-29T13:21:02;7.10;;;2.50;;
33794;SDS011;51430;52.242;21.118;2023-05-29T13:23:30;3.40;;;2.20;;
33794;SDS011;51430;52.242;21.118;2023-05-29T13:25:58;4.30;;;2.00;;
33794;SDS011;51430;52.242;21.118;2023-05-29T13:28:32;9.20;;;2.60;;
33794;SDS011;51430;52.242;21.118;2023-05-29T13:31:32;4.90;;;2.40;;
33794;SDS011;51430;52.242;21.118;2023-05-29T13:34:06;8.40;;;2.70;;
33794;SDS011;51430;52.242;21.118;2023-05-29T13:36:34;7.20;;;2.40;;
33794;SDS011;51430;52.242;21.118;2023-05-29T13:39:15;7.70;;;2.50;;
33794;SDS011;51430;52.242;21.118;2023-05-29T13:42:07;8.30;;;2.50;;
33794;SDS011;51430;52.242;21.118;2023-05-29T13:45:27;6.60;;;2.50;;
33794;SDS011;51430;52.242;21.118;2023-05-29T13:48:18;6.50;;;2.50;;
33794;SDS011;51430;52.242;21.118;2023-05-29T13:50:57;5.70;;;2.40;;
33794;SDS011;51430;52.242;21.118;2023-05-29T13:53:26;11.10;;;2.70;;
33794;SDS011;51430;52.242;21.118;2023-05-29T13:56:50;5.80;;;2.40;;
33794;SDS011;51430;52.242;21.118;2023-05-29T13:59:20;7.10;;;2.70;;
33794;SDS011;51430;52.242;21.118;2023-05-29T14:02:17;8.80;;;3.00;;
33794;SDS011;51430;52.242;21.118;2023-05-29T14:05:41;9.40;;;2.70;;
33794;SDS011;51430;52.242;21.118;2023-05-29T14:08:11;6.60;;;2.60;;
33794;SDS011;51430;52.242;21.118;2023-05-29T14:10:41;6.40;;;2.60;;
33794;SDS011;51430;52.242;21.118;2023-05-29T14:13:09;5.30;;;2.30;;
33794;SDS011;51430;52.242;21.118;2023-05-29T14:15:39;6.80;;;2.50;;
33794;SDS011;51430;52.242;21.118;2023-05-29T14:18:28;4.50;;;2.30;;
33794;SDS011;51430;52.242;21.118;2023-05-29T14:20:58;6.00;;;2.40;;
33794;SDS011;51430;52.242;21.118;2023-05-29T14:23:27;4.90;;;2.20;;
33794;SDS011;51430;52.242;21.118;2023-05-29T14:26:15;7.50;;;2.50;;
33794;SDS011;51430;52.242;21.118;2023-05-29T14:29:19;5.30;;;2.10;;
33794;SDS011;51430;52.242;21.118;2023-05-29T14:32:23;6.20;;;2.20;;
33794;SDS011;51430;52.242;21.118;2023-05-29T14:34:53;4.80;;;2.20;;
33794;SDS011;51430;52.242;21.118;2023-05-29T14:37:22;6.20;;;2.30;;
33794;SDS011;51430;52.242;21.118;2023-05-29T14:39:53;5.00;;;2.10;;
33794;SDS011;51430;52.242;21.118;2023-05-29T14:42:21;7.10;;;2.40;;
33794;SDS011;51430;52.242;21.118;2023-05-29T14:44:52;11.60;;;2.80;;
33794;SDS011;51430;52.242;21.118;2023-05-29T14:47:28;5.00;;;2.40;;
33794;SDS011;51430;52.242;21.118;2023-05-29T14:49:57;5.50;;;2.10;;
33794;SDS011;51430;52.242;21.118;2023-05-29T14:52:28;6.00;;;2.30;;
33794;SDS011;51430;52.242;21.118;2023-05-29T14:54:56;4.60;;;2.20;;
33794;SDS011;51430;52.242;21.118;2023-05-29T14:57:24;6.10;;;1.90;;
33794;SDS011;51430;52.242;21.118;2023-05-29T14:59:53;3.20;;;2.10;;
33794;SDS011;51430;52.242;21.118;2023-05-29T15:02:21;9.50;;;2.20;;
33794;SDS011;51430;52.242;21.118;2023-05-29T15:04:49;5.30;;;2.30;;
33794;SDS011;51430;52.242;21.118;2023-05-29T15:07:19;4.80;;;2.10;;
33794;SDS011;51430;52.242;21.118;2023-05-29T15:09:47;6.00;;;2.10;;
33794;SDS011;51430;52.242;21.118;2023-05-29T15:12:15;3.40;;;2.30;;
33794;SDS011;51430;52.242;21.118;2023-05-29T15:14:45;6.50;;;2.30;;
33794;SDS011;51430;52.242;21.118;2023-05-29T15:17:15;6.30;;;2.60;;
33794;SDS011;51430;52.242;21.118;2023-05-29T15:19:43;4.80;;;2.20;;
33794;SDS011;51430;52.242;21.118;2023-05-29T15:22:14;5.30;;;2.40;;
33794;SDS011;51430;52.242;21.118;2023-05-29T15:24:45;4.50;;;2.20;;
33794;SDS011;51430;52.242;21.118;2023-05-29T15:27:18;4.40;;;2.20;;